createdAt,value
2018-10-18T00:01:51.853Z,100648.00
2018-10-18T00:04:20.805Z,100639.51
2018-10-18T00:06:49.777Z,100639.97
2018-10-18T00:09:18.827Z,100642.89
2018-10-18T00:11:47.797Z,100646.02
2018-10-18T00:14:16.785Z,100645.31
2018-10-18T00:16:45.764Z,100647.11
2018-10-18T00:19:14.828Z,100647.18
2018-10-18T00:21:43.814Z,100642.89
2018-10-18T00:24:12.729Z,100641.24
2018-10-18T00:26:41.706Z,100638.42
2018-10-18T00:29:10.658Z,100633.48
2018-10-18T00:31:39.623Z,100635.56
2018-10-18T00:34:08.542Z,100638.53
2018-10-18T00:36:37.536Z,100639.12
2018-10-18T00:39:09.531Z,100638.22
2018-10-18T00:41:38.557Z,100645.95
2018-10-18T00:44:08.103Z,100642.97
2018-10-18T00:46:37.085Z,100646.94
2018-10-18T00:49:06.154Z,100646.38
2018-10-18T00:51:35.104Z,100648.45
2018-10-18T00:54:04.146Z,100645.58
2018-10-18T00:56:33.009Z,100638.80
2018-10-18T00:59:01.920Z,100636.83
2018-10-18T01:01:30.830Z,100641.38
2018-10-18T02:41:08.674Z,100625.42
2018-10-18T02:43:37.876Z,100625.42
2018-10-18T02:46:07.045Z,100628.64
2018-10-18T02:48:36.275Z,100632.66
2018-10-18T02:51:05.472Z,100626.01
2018-10-18T02:53:34.666Z,100626.67
2018-10-18T02:56:03.975Z,100623.14
2018-10-18T02:58:33.266Z,100621.91
2018-10-18T03:01:02.444Z,100627.36
2018-10-18T03:03:31.724Z,100628.29
2018-10-18T03:06:00.954Z,100631.55
2018-10-18T03:08:30.233Z,100635.70
2018-10-18T03:10:59.578Z,100631.39
2018-10-18T03:13:28.855Z,100632.97
2018-10-18T03:15:58.056Z,100636.79
2018-10-18T03:18:27.262Z,100632.18
2018-10-18T03:20:56.746Z,100636.08
2018-10-18T03:23:25.938Z,100633.86
2018-10-18T03:25:55.134Z,100638.11
2018-10-18T03:28:24.366Z,100634.30
2018-10-18T03:30:53.635Z,100635.24
2018-10-18T03:33:22.757Z,100641.41
2018-10-18T03:35:51.928Z,100638.45
2018-10-18T03:38:21.136Z,100638.67
2018-10-18T03:40:50.408Z,100644.16
2018-10-18T03:43:19.637Z,100642.62
2018-10-18T03:45:48.923Z,100638.81
2018-10-18T03:48:18.157Z,100647.31
2018-10-18T03:50:47.275Z,100634.42
2018-10-18T03:53:16.443Z,100638.27
2018-10-18T03:55:45.647Z,100645.11
2018-10-18T03:58:14.836Z,100636.64
2018-10-18T04:00:44.050Z,100642.48
2018-10-18T04:03:13.317Z,100642.95
2018-10-18T04:05:42.630Z,100641.16
2018-10-18T04:08:11.826Z,100644.78
2018-10-18T04:10:41.046Z,100642.40
2018-10-18T04:13:10.278Z,100643.85
2018-10-18T04:15:39.281Z,100644.00
2018-10-18T04:18:08.541Z,100646.84
2018-10-18T04:20:37.726Z,100645.34
2018-10-18T04:23:06.898Z,100642.77
2018-10-18T04:25:36.175Z,100645.61
2018-10-18T04:28:05.331Z,100641.19
2018-10-18T04:30:34.527Z,100643.47
2018-10-18T04:33:03.736Z,100638.73
2018-10-18T04:35:32.938Z,100640.13
2018-10-18T04:38:02.126Z,100644.00
2018-10-18T04:40:31.417Z,100647.05
2018-10-18T04:43:00.619Z,100640.76
2018-10-18T04:45:29.789Z,100637.73
2018-10-18T04:47:59.103Z,100637.39
2018-10-18T04:50:28.286Z,100645.28
2018-10-18T04:52:57.526Z,100653.77
2018-10-18T04:55:26.718Z,100652.89
2018-10-18T04:57:55.753Z,100659.97
2018-10-18T05:00:24.751Z,100659.72
2018-10-18T05:02:53.823Z,100659.47
2018-10-18T05:05:33.641Z,100666.39
2018-10-18T05:08:02.838Z,100674.59
2018-10-18T05:10:32.004Z,100677.72
2018-10-18T05:13:01.228Z,100677.05
2018-10-18T05:15:30.431Z,100676.03
2018-10-18T05:17:59.811Z,100675.62
2018-10-18T05:20:29.010Z,100682.33
2018-10-18T05:22:58.303Z,100683.52
2018-10-18T05:25:27.578Z,100687.03
2018-10-18T05:27:56.747Z,100685.85
2018-10-18T05:30:26.034Z,100699.75
2018-10-18T05:32:55.297Z,100698.41
2018-10-18T05:35:24.435Z,100701.23
2018-10-18T05:37:53.668Z,100712.41
2018-10-18T05:40:22.896Z,100716.60
2018-10-18T05:42:52.123Z,100722.55
2018-10-18T05:45:21.813Z,100729.59
2018-10-18T05:47:51.099Z,100732.33
2018-10-18T05:50:20.296Z,100735.66
2018-10-18T05:52:49.510Z,100738.14
2018-10-18T05:55:18.727Z,100740.62
2018-10-18T05:57:48.094Z,100743.53
2018-10-18T06:00:18.683Z,100750.28
2018-10-18T06:02:48.176Z,100760.36
2018-10-18T06:05:18.390Z,100756.91
2018-10-18T06:07:47.677Z,100767.94
2018-10-18T06:10:28.408Z,100761.81
2018-10-18T06:12:57.783Z,100762.59
2018-10-18T06:15:27.044Z,100765.70
2018-10-18T06:17:56.267Z,100765.15
2018-10-18T06:20:25.633Z,100772.08
2018-10-18T06:22:55.041Z,100771.08
2018-10-18T06:25:24.133Z,100775.45
2018-10-18T06:27:53.377Z,100782.50
2018-10-18T06:30:22.812Z,100784.37
2018-10-18T06:32:52.109Z,100787.83
2018-10-18T06:35:21.381Z,100791.44
2018-10-18T06:37:50.609Z,100792.11
2018-10-18T06:40:19.927Z,100798.90
2018-10-18T06:42:49.226Z,100800.28
2018-10-18T06:45:19.476Z,100799.18
2018-10-18T06:47:49.002Z,100796.44
2018-10-18T06:50:19.326Z,100804.71
2018-10-18T06:52:48.606Z,100804.98
2018-10-18T06:55:17.854Z,100807.45
2018-10-18T06:57:47.099Z,100801.66
2018-10-18T07:00:22.074Z,100799.34
2018-10-18T07:02:51.767Z,100800.44
2018-10-18T07:05:20.929Z,100810.33
2018-10-18T07:07:50.135Z,100808.02
2018-10-18T07:10:19.358Z,100802.64
2018-10-18T07:12:48.768Z,100815.61
2018-10-18T07:15:17.958Z,100804.97
2018-10-18T07:17:47.316Z,100820.50
2018-10-18T07:20:16.607Z,100820.24
2018-10-18T07:22:45.768Z,100822.39
2018-10-18T07:25:16.231Z,100824.13
2018-10-18T07:27:45.457Z,100823.16
2018-10-18T07:30:15.651Z,100828.05
2018-10-18T07:32:44.877Z,100827.41
2018-10-18T07:35:14.823Z,100833.80
2018-10-18T07:37:45.234Z,100835.94
2018-10-18T07:40:16.600Z,100834.11
2018-10-18T07:42:45.867Z,100833.98
2018-10-18T07:45:16.221Z,100842.27
2018-10-18T07:47:45.926Z,100848.45
2018-10-18T07:50:15.137Z,100848.08
2018-10-18T07:52:44.403Z,100848.85
2018-10-18T07:55:13.510Z,100842.95
2018-10-18T07:57:42.833Z,100852.59
2018-10-18T08:00:14.741Z,100856.21
2018-10-18T08:02:44.591Z,100856.59
2018-10-18T08:05:14.221Z,100858.20
2018-10-18T08:07:43.555Z,100855.31
2018-10-18T08:10:24.936Z,100864.20
2018-10-18T08:12:54.183Z,100872.62
2018-10-18T08:15:23.477Z,100869.22
2018-10-18T08:17:52.671Z,100866.09
2018-10-18T08:20:21.871Z,100870.80
2018-10-18T08:22:51.304Z,100863.30
2018-10-18T08:25:20.495Z,100872.52
2018-10-18T08:27:49.794Z,100869.96
2018-10-18T08:30:18.910Z,100872.02
2018-10-18T08:32:48.191Z,100861.95
2018-10-18T08:35:17.344Z,100875.73
2018-10-18T08:37:46.695Z,100871.37
2018-10-18T08:40:15.792Z,100876.47
2018-10-18T08:42:45.051Z,100878.63
2018-10-18T08:45:15.009Z,100875.61
2018-10-18T08:47:44.122Z,100883.72
2018-10-18T08:50:13.473Z,100885.86
2018-10-18T08:52:42.574Z,100891.29
2018-10-18T08:55:13.552Z,100882.88
2018-10-18T08:57:43.312Z,100884.38
2018-10-18T09:00:13.328Z,100885.89
2018-10-18T09:02:43.346Z,100882.48
2018-10-18T09:05:12.621Z,100880.27
2018-10-18T09:07:41.863Z,100884.55
2018-10-18T09:10:11.059Z,100887.92
2018-10-18T09:12:40.240Z,100890.61
2018-10-18T09:15:10.093Z,100880.86
2018-10-18T09:17:39.474Z,100889.94
2018-10-18T09:20:08.767Z,100888.75
2018-10-18T09:22:38.206Z,100882.84
2018-10-18T09:25:08.342Z,100884.52
2018-10-18T09:27:37.587Z,100879.98
2018-10-18T09:30:08.483Z,100875.57
2018-10-18T09:32:37.669Z,100876.09
2018-10-18T09:35:07.056Z,100880.23
2018-10-18T09:37:36.224Z,100879.27
2018-10-18T09:40:05.909Z,100879.45
2018-10-18T09:42:35.046Z,100872.91
2018-10-18T09:45:04.140Z,100866.05
2018-10-18T09:47:32.993Z,100869.76
2018-10-18T09:50:01.926Z,100866.72
2018-10-18T09:52:30.869Z,100868.37
2018-10-18T09:54:59.802Z,100877.87
2018-10-18T09:57:28.790Z,100866.73
2018-10-18T09:59:57.742Z,100876.13
2018-10-18T10:02:31.889Z,100871.20
2018-10-18T10:05:00.817Z,100875.11
2018-10-18T10:07:29.767Z,100872.47
2018-10-18T10:09:58.692Z,100876.16
2018-10-18T10:12:27.622Z,100870.30
2018-10-18T10:14:56.558Z,100875.06
2018-10-18T10:17:25.554Z,100876.37
2018-10-18T10:19:54.499Z,100876.28
2018-10-18T10:22:23.439Z,100870.08
2018-10-18T10:24:52.407Z,100865.77
2018-10-18T10:27:21.375Z,100862.33
2018-10-18T10:29:50.298Z,100862.22
2018-10-18T10:32:19.359Z,100858.27
2018-10-18T10:34:48.277Z,100862.67
2018-10-18T10:37:17.268Z,100858.93
2018-10-18T10:39:46.385Z,100857.19
2018-10-18T10:42:15.383Z,100859.36
2018-10-18T10:44:44.363Z,100856.45
2018-10-18T10:47:13.269Z,100850.86
2018-10-18T10:49:42.189Z,100846.89
2018-10-18T10:52:11.246Z,100845.59
2018-10-18T10:54:40.105Z,100842.02
2018-10-18T10:57:09.119Z,100841.91
2018-10-18T10:59:38.033Z,100840.47
2018-10-18T11:02:07.338Z,100842.64
2018-10-18T11:04:36.232Z,100835.62
2018-10-18T11:07:05.178Z,100836.86
2018-10-18T11:09:34.096Z,100839.09
2018-10-18T11:12:03.105Z,100838.31
2018-10-18T11:14:32.021Z,100838.76
2018-10-18T11:17:01.025Z,100842.84
2018-10-18T11:19:29.937Z,100832.73
2018-10-18T11:21:58.937Z,100831.62
2018-10-18T11:24:27.886Z,100825.97
2018-10-18T11:26:56.929Z,100830.50
2018-10-18T11:29:25.877Z,100838.03
2018-10-18T11:31:54.853Z,100838.13
2018-10-18T11:34:23.884Z,100834.05
2018-10-18T11:36:52.825Z,100826.84
2018-10-18T11:39:21.786Z,100830.81
2018-10-18T11:41:50.754Z,100828.32
2018-10-18T11:44:22.542Z,100827.69
2018-10-18T11:46:51.511Z,100826.15
2018-10-18T11:49:20.441Z,100820.78
2018-10-18T11:51:49.502Z,100812.22
2018-10-18T11:54:18.518Z,100812.98
2018-10-18T11:56:47.592Z,100811.47
2018-10-18T11:59:16.560Z,100815.73
2018-10-18T12:01:45.538Z,100816.16
2018-10-18T12:04:14.510Z,100809.73
2018-10-18T12:06:43.533Z,100807.58
2018-10-18T12:09:12.994Z,100800.59
2018-10-18T12:11:42.139Z,100800.62
2018-10-18T12:14:11.321Z,100798.53
2018-10-18T12:16:40.333Z,100800.94
2018-10-18T12:19:09.629Z,100802.17
2018-10-18T12:21:38.626Z,100805.53
2018-10-18T12:24:07.718Z,100802.36
2018-10-18T12:26:36.780Z,100798.84
2018-10-18T12:29:05.895Z,100798.41
2018-10-18T12:31:35.116Z,100803.39
2018-10-18T12:34:04.357Z,100805.74
2018-10-18T12:36:33.357Z,100798.66
2018-10-18T12:39:02.615Z,100799.90
2018-10-18T12:41:31.684Z,100798.84
2018-10-18T12:44:00.841Z,100790.33
2018-10-18T12:46:29.946Z,100802.83
2018-10-18T12:48:59.200Z,100797.54
2018-10-18T12:51:28.250Z,100804.95
2018-10-18T12:53:57.393Z,100801.12
2018-10-18T12:56:26.542Z,100797.00
2018-10-18T12:58:55.674Z,100808.19
2018-10-18T13:01:24.874Z,100805.06
2018-10-18T13:03:53.977Z,100807.41
2018-10-18T13:06:23.123Z,100806.63
2018-10-18T13:08:52.540Z,100808.92
2018-10-18T13:11:21.776Z,100803.47
2018-10-18T13:13:50.931Z,100796.34
2018-10-18T13:16:19.968Z,100803.53
2018-10-18T13:18:49.288Z,100801.94
2018-10-18T13:21:18.415Z,100800.45
2018-10-18T13:23:47.405Z,100800.31
2018-10-18T13:26:16.406Z,100803.67
2018-10-18T13:28:45.374Z,100801.27
2018-10-18T13:31:14.310Z,100799.17
2018-10-18T13:33:43.277Z,100796.48
2018-10-18T13:36:12.310Z,100798.67
2018-10-18T13:38:41.338Z,100810.25
2018-10-18T13:41:10.295Z,100798.20
2018-10-18T13:43:39.275Z,100795.30
2018-10-18T13:46:08.218Z,100794.80
2018-10-18T13:48:37.267Z,100810.17
2018-10-18T13:51:06.210Z,100805.70
2018-10-18T13:53:39.758Z,100806.36
2018-10-18T13:56:09.195Z,100796.26
2018-10-18T13:58:38.226Z,100805.90
2018-10-18T14:01:07.161Z,100798.36
2018-10-18T14:03:36.148Z,100800.72
2018-10-18T14:06:05.087Z,100798.92
2018-10-18T14:08:34.082Z,100800.60
2018-10-18T14:11:03.128Z,100806.19
2018-10-18T14:13:32.087Z,100795.37
2018-10-18T14:18:57.901Z,100794.58
2018-10-18T14:21:26.950Z,100811.89
2018-10-18T14:23:55.906Z,100811.19
2018-10-18T14:26:24.908Z,100803.55
2018-10-18T14:28:53.912Z,100807.25
2018-10-18T14:31:22.889Z,100807.36
2018-10-18T14:33:51.876Z,100796.28
2018-10-18T14:36:20.827Z,100799.95
2018-10-18T14:38:49.936Z,100801.17
2018-10-18T14:41:18.926Z,100799.22
2018-10-18T14:43:47.866Z,100796.10
2018-10-18T14:46:16.826Z,100798.97
2018-10-18T14:48:45.809Z,100802.53
2018-10-18T14:51:14.806Z,100807.20
2018-10-18T14:53:43.807Z,100801.14
2018-10-18T14:56:12.950Z,100802.41
2018-10-18T14:58:41.854Z,100803.33
2018-10-18T15:01:10.796Z,100803.46
2018-10-18T15:03:39.784Z,100810.64
2018-10-18T15:06:08.745Z,100809.95
2018-10-18T15:08:38.018Z,100812.72
2018-10-18T15:11:07.057Z,100806.86
2018-10-18T15:13:36.031Z,100802.05
2018-10-18T15:16:04.965Z,100801.05
2018-10-18T15:18:33.916Z,100805.81
2018-10-18T15:21:02.944Z,100807.05
2018-10-18T15:23:31.922Z,100803.19
2018-10-18T15:26:00.964Z,100807.89
2018-10-18T15:28:29.936Z,100802.86
2018-10-18T15:30:59.078Z,100807.33
2018-10-18T15:33:28.042Z,100811.62
2018-10-18T15:35:57.073Z,100813.33
2018-10-18T15:38:26.239Z,100802.44
2018-10-18T15:40:55.347Z,100810.58
2018-10-18T15:43:25.264Z,100810.55
2018-10-18T15:45:54.324Z,100810.09
2018-10-18T15:48:23.290Z,100805.01
2018-10-18T15:50:52.585Z,100807.80
2018-10-18T15:53:21.831Z,100809.05
2018-10-18T15:55:51.113Z,100810.50
2018-10-18T15:58:20.059Z,100814.10
2018-10-18T16:00:49.054Z,100816.55
2018-10-18T16:03:18.089Z,100812.68
2018-10-18T16:05:47.062Z,100821.10
2018-10-18T16:08:16.266Z,100809.87
2018-10-18T16:10:45.491Z,100825.39
2018-10-18T16:13:14.541Z,100820.66
2018-10-18T16:15:43.741Z,100818.38
2018-10-18T16:18:12.883Z,100826.74
2018-10-18T16:20:42.042Z,100833.72
2018-10-18T16:23:11.230Z,100830.36
2018-10-18T16:25:40.433Z,100833.27
2018-10-18T16:28:09.618Z,100836.97
2018-10-18T16:30:38.790Z,100840.30
2018-10-18T16:33:08.285Z,100846.32
2018-10-18T16:35:37.753Z,100844.88
2018-10-18T16:38:07.065Z,100842.72
2018-10-18T16:40:36.239Z,100853.16
2018-10-18T16:43:05.512Z,100851.13
2018-10-18T16:45:34.737Z,100861.91
2018-10-18T16:48:03.961Z,100866.98
2018-10-18T16:50:33.214Z,100863.59
2018-10-18T16:53:02.517Z,100868.03
2018-10-18T16:55:31.736Z,100875.09
2018-10-18T16:58:00.931Z,100872.42
2018-10-18T17:00:30.195Z,100873.08
2018-10-18T17:02:59.405Z,100875.45
2018-10-18T17:05:28.630Z,100875.28
2018-10-18T17:07:57.877Z,100880.48
2018-10-18T17:10:27.333Z,100882.53
2018-10-18T17:12:56.511Z,100887.50
2018-10-18T17:15:25.730Z,100891.74
2018-10-18T17:17:54.941Z,100896.00
2018-10-18T17:20:24.319Z,100899.35
2018-10-18T17:22:53.414Z,100906.84
2018-10-18T17:25:22.632Z,100904.05
2018-10-18T17:27:51.855Z,100900.52
2018-10-18T17:30:21.078Z,100912.28
2018-10-18T17:32:50.278Z,100907.86
2018-10-18T17:35:19.701Z,100911.81
2018-10-18T17:37:48.894Z,100917.21
2018-10-18T17:40:18.282Z,100910.69
2018-10-18T17:42:47.426Z,100910.87
2018-10-18T17:45:17.144Z,100902.84
2018-10-18T17:47:46.626Z,100912.75
2018-10-18T17:50:16.456Z,100911.01
2018-10-18T17:52:45.874Z,100911.59
2018-10-18T17:55:15.472Z,100914.18
2018-10-18T17:57:45.032Z,100914.31
2018-10-18T18:00:14.765Z,100915.19
2018-10-18T18:02:44.366Z,100915.19
2018-10-18T18:05:14.013Z,100920.69
2018-10-18T18:07:43.523Z,100921.19
2018-10-18T18:10:15.928Z,100923.47
2018-10-18T18:12:45.682Z,100919.93
2018-10-18T18:15:15.300Z,100919.75
2018-10-18T18:17:44.915Z,100916.98
2018-10-18T18:20:14.306Z,100917.72
2018-10-18T18:22:43.532Z,100917.91
2018-10-18T18:25:13.294Z,100921.75
2018-10-18T18:27:42.505Z,100926.60
2018-10-18T18:30:14.251Z,100922.81
2018-10-18T18:32:44.072Z,100926.02
2018-10-18T18:35:13.553Z,100929.05
2018-10-18T18:37:42.807Z,100925.73
2018-10-18T18:40:12.007Z,100931.82
2018-10-18T18:42:41.582Z,100932.11
2018-10-18T18:45:16.056Z,100932.27
2018-10-18T18:47:45.219Z,100930.50
2018-10-18T18:50:14.435Z,100940.66
2018-10-18T18:52:43.658Z,100940.55
2018-10-18T18:55:12.822Z,100945.75
2018-10-18T18:57:42.116Z,100947.84
2018-10-18T19:00:11.795Z,100946.27
2018-10-18T19:02:41.010Z,100941.77
2018-10-18T19:05:10.662Z,100940.99
2018-10-18T19:07:40.265Z,100949.49
2018-10-18T19:10:10.018Z,100951.83
2018-10-18T19:12:39.784Z,100950.97
2018-10-18T19:15:09.722Z,100944.59
2018-10-18T19:17:40.193Z,100946.36
2018-10-18T19:20:09.817Z,100954.41
2018-10-18T19:22:39.465Z,100947.28
2018-10-18T19:25:09.409Z,100947.16
2018-10-18T19:27:39.128Z,100950.95
2018-10-18T19:30:10.046Z,100949.31
2018-10-18T19:32:39.782Z,100956.27
2018-10-18T19:35:09.466Z,100962.30
2018-10-18T19:37:39.074Z,100962.77
2018-10-18T19:40:09.225Z,100966.56
2018-10-18T19:42:38.726Z,100969.34
2018-10-18T19:45:08.963Z,100967.14
2018-10-18T19:47:38.538Z,100973.05
2018-10-18T19:50:08.543Z,100975.00
2018-10-18T19:52:38.271Z,100976.37
2018-10-18T19:55:08.500Z,100970.77
2018-10-18T19:57:38.031Z,100977.40
2018-10-18T20:00:08.353Z,100971.52
2018-10-18T20:02:37.729Z,100982.80
2018-10-18T20:05:07.374Z,100988.78
2018-10-18T20:07:36.783Z,100989.70
2018-10-18T20:10:06.555Z,100995.66
2018-10-18T20:12:35.785Z,100997.03
2018-10-18T20:15:05.561Z,101002.69
2018-10-18T20:17:34.760Z,101006.42
2018-10-18T20:20:04.191Z,101005.17
2018-10-18T20:22:33.411Z,101007.74
2018-10-18T20:25:02.645Z,101005.66
2018-10-18T20:27:31.854Z,101009.20
2018-10-18T20:30:01.090Z,101013.38
2018-10-18T20:32:30.321Z,101007.30
2018-10-18T20:34:59.454Z,101008.70
2018-10-18T20:37:28.770Z,101011.19
2018-10-18T20:39:58.136Z,101011.24
2018-10-18T20:42:27.459Z,101008.86
2018-10-18T20:44:56.806Z,101014.92
2018-10-18T20:47:26.204Z,101013.58
2018-10-18T20:49:55.224Z,101014.88
2018-10-18T20:52:24.421Z,101012.71
2018-10-18T20:54:53.563Z,101011.37
2018-10-18T20:57:22.776Z,101014.69
2018-10-18T20:59:51.962Z,101010.89
2018-10-18T21:02:21.167Z,101013.92
2018-10-18T21:04:50.338Z,101014.48
2018-10-18T21:07:19.583Z,101020.91
2018-10-18T21:09:48.737Z,101019.57
2018-10-18T21:12:17.966Z,101022.10
2018-10-18T21:14:47.379Z,101026.72
2018-10-18T21:17:16.573Z,101015.47
2018-10-18T21:19:45.744Z,101020.31
2018-10-18T21:22:15.018Z,101022.38
2018-10-18T21:24:44.330Z,101018.66
2018-10-18T21:27:13.736Z,101013.64
2018-10-18T21:29:43.238Z,101013.16
2018-10-18T21:32:14.114Z,101016.33
2018-10-18T21:34:43.511Z,101002.63
2018-10-18T21:37:12.634Z,101013.48
2018-10-18T21:39:41.902Z,101010.97
2018-10-18T21:42:11.062Z,101014.14
2018-10-18T21:44:40.467Z,101014.99
2018-10-18T21:47:09.868Z,101002.34
2018-10-18T21:49:39.025Z,101001.63
2018-10-18T21:52:08.218Z,100997.77
2018-10-18T21:54:37.503Z,101000.80
2018-10-18T21:57:07.053Z,100998.86
2018-10-18T21:59:36.207Z,100996.89
2018-10-18T22:02:05.679Z,100999.91
2018-10-18T22:04:34.884Z,101004.07
2018-10-18T22:07:04.035Z,101001.75
2018-10-18T22:09:33.187Z,101000.15
2018-10-18T22:12:02.386Z,100997.45
2018-10-18T22:14:31.575Z,101007.64
2018-10-18T22:17:00.711Z,101003.42
2018-10-18T22:19:29.939Z,100998.17
2018-10-18T22:21:59.096Z,100995.28
2018-10-18T22:24:28.296Z,100998.19
2018-10-18T22:26:57.733Z,101006.63
2018-10-18T22:29:27.026Z,101001.58
2018-10-18T22:31:56.186Z,100993.67
2018-10-18T22:34:25.398Z,100998.74
2018-10-18T22:36:54.605Z,100994.03
2018-10-18T22:39:23.780Z,100995.86
2018-10-18T22:41:52.898Z,100999.59
2018-10-18T22:44:22.094Z,100995.88
2018-10-18T22:46:51.193Z,101002.69
2018-10-18T22:49:20.439Z,101007.27
2018-10-18T22:51:49.588Z,100998.89
2018-10-18T22:54:18.756Z,101004.32
2018-10-18T22:56:48.026Z,101000.75
2018-10-18T22:59:17.255Z,100996.37
2018-10-18T23:01:46.429Z,100993.35
2018-10-18T23:04:15.581Z,100995.89
2018-10-18T23:06:44.748Z,101000.80
2018-10-18T23:09:14.049Z,100999.02
2018-10-18T23:11:43.070Z,100997.98
2018-10-18T23:14:12.256Z,101001.92
2018-10-18T23:16:41.431Z,100999.67
2018-10-18T23:19:10.935Z,101000.08
2018-10-18T23:21:40.134Z,100989.86
2018-10-18T23:24:09.271Z,100996.78
2018-10-18T23:26:38.464Z,100982.92
2018-10-18T23:29:07.655Z,100988.38
2018-10-18T23:31:36.875Z,100987.02
2018-10-18T23:34:06.360Z,100976.72
2018-10-18T23:36:35.622Z,100974.21
2018-10-18T23:39:06.116Z,100981.05
2018-10-18T23:41:35.294Z,100983.00
2018-10-18T23:44:04.428Z,100981.47
2018-10-18T23:46:33.589Z,100979.25
2018-10-18T23:49:02.739Z,100983.77
2018-10-18T23:51:31.968Z,100980.19
2018-10-18T23:54:01.144Z,100980.09
2018-10-18T23:56:30.421Z,100980.45
2018-10-18T23:58:59.618Z,100973.61
